Time;durP1;ratioP1;P1;durP2;ratioP2;P2;SDS_P1;SDS_P2;PMS_P1;PMS_P2;Temp;Humidity;BMP_temperature;BMP_pressure;BME280_temperature;BME280_humidity;BME280_pressure;Samples;Min_cycle;Max_cycle;Signal;HPM_P1;HPM_P2
2023/04/21 00:00:08;;;;;;;26.25;15.25;;;;;;;;;;6184291;23;20459;-84
2023/04/21 00:02:53;;;;;;;24.42;13.93;;;;;;;;;;6184909;23;20056;-85
2023/04/21 00:05:41;;;;;;;27.92;14.48;;;;;;;;;;6183612;23;20051;-85
2023/04/21 00:08:25;;;;;;;29.13;15.00;;;;;;;;;;6183196;23;20031;-85
2023/04/21 00:11:10;;;;;;;22.80;13.20;;;;;;;;;;6182843;23;20507;-84
2023/04/21 00:13:55;;;;;;;24.30;13.30;;;;;;;;;;6183584;23;20019;-84
2023/04/21 00:16:40;;;;;;;25.30;13.93;;;;;;;;;;6162689;23;20071;-83
2023/04/21 00:19:24;;;;;;;22.27;13.63;;;;;;;;;;6184070;23;20020;-84
2023/04/21 00:22:13;;;;;;;25.42;15.88;;;;;;;;;;6182887;23;20071;-85
2023/04/21 00:24:58;;;;;;;29.10;13.77;;;;;;;;;;6183083;23;20055;-86
2023/04/21 00:27:43;;;;;;;26.38;14.23;;;;;;;;;;6162405;23;20028;-85
2023/04/21 00:30:28;;;;;;;20.52;12.80;;;;;;;;;;6183162;23;20020;-84
2023/04/21 00:33:12;;;;;;;27.73;13.65;;;;;;;;;;6182339;23;20016;-84
2023/04/21 00:35:58;;;;;;;21.40;14.35;;;;;;;;;;6184087;23;20043;-84
2023/04/21 00:38:42;;;;;;;23.95;13.32;;;;;;;;;;6184030;23;20451;-83
2023/04/21 00:41:28;;;;;;;23.67;13.82;;;;;;;;;;6182120;23;20036;-85
2023/04/21 00:44:12;;;;;;;21.40;13.55;;;;;;;;;;6183606;23;20075;-83
2023/04/21 00:46:57;;;;;;;21.40;11.43;;;;;;;;;;6182807;23;20470;-84
2023/04/21 00:49:42;;;;;;;23.33;13.52;;;;;;;;;;6161751;23;20067;-84
2023/04/21 00:52:27;;;;;;;23.50;13.20;;;;;;;;;;6182369;23;20020;-84
2023/04/21 00:55:12;;;;;;;22.73;12.60;;;;;;;;;;6183788;23;20389;-84
2023/04/21 00:57:57;;;;;;;23.90;12.95;;;;;;;;;;6184438;23;20023;-84
2023/04/21 01:00:43;;;;;;;20.65;11.90;;;;;;;;;;6184472;23;20017;-84
2023/04/21 01:03:28;;;;;;;24.38;13.35;;;;;;;;;;6183544;23;20067;-84
2023/04/21 01:06:12;;;;;;;21.23;12.25;;;;;;;;;;6183662;23;20348;-84
2023/04/21 01:08:57;;;;;;;21.92;12.40;;;;;;;;;;6182800;23;20020;-84
2023/04/21 01:11:42;;;;;;;20.27;13.18;;;;;;;;;;6184280;23;20347;-83
2023/04/21 01:14:26;;;;;;;19.35;11.10;;;;;;;;;;6182305;23;20487;-84
2023/04/21 01:17:11;;;;;;;18.38;11.95;;;;;;;;;;6183843;23;20510;-88
2023/04/21 01:19:56;;;;;;;23.17;12.10;;;;;;;;;;6182948;23;20020;-84
2023/04/21 01:22:43;;;;;;;21.10;12.52;;;;;;;;;;6182808;23;20040;-84
2023/04/21 01:25:28;;;;;;;21.27;11.27;;;;;;;;;;6182772;23;20020;-84
2023/04/21 01:28:13;;;;;;;22.05;10.57;;;;;;;;;;6161764;23;20490;-85
2023/04/21 01:30:57;;;;;;;25.95;11.55;;;;;;;;;;6184425;23;20092;-83
2023/04/21 01:33:42;;;;;;;19.58;12.32;;;;;;;;;;6183185;23;20068;-84
2023/04/21 01:36:32;;;;;;;21.98;12.25;;;;;;;;;;6183797;23;20064;-86
2023/04/21 01:39:17;;;;;;;19.90;12.13;;;;;;;;;;6162188;23;20072;-84
2023/04/21 01:42:02;;;;;;;21.25;12.93;;;;;;;;;;6182911;23;20067;-84
2023/04/21 01:44:48;;;;;;;20.40;11.63;;;;;;;;;;6182716;23;20396;-83
2023/04/21 01:47:32;;;;;;;17.13;11.40;;;;;;;;;;6182226;23;20175;-84
2023/04/21 01:50:17;;;;;;;16.92;11.10;;;;;;;;;;6161463;23;20071;-85
2023/04/21 01:53:02;;;;;;;20.35;10.65;;;;;;;;;;6184284;23;20091;-85
2023/04/21 01:55:55;;;;;;;21.17;11.70;;;;;;;;;;6182995;23;20095;-86
2023/04/21 01:58:40;;;;;;;17.00;10.63;;;;;;;;;;6182503;23;20055;-83
2023/04/21 02:01:24;;;;;;;22.75;11.30;;;;;;;;;;6183850;23;20340;-83
2023/04/21 02:04:09;;;;;;;19.45;11.57;;;;;;;;;;6183853;23;20032;-83
2023/04/21 02:06:54;;;;;;;22.15;11.02;;;;;;;;;;6182502;23;20035;-84
2023/04/21 02:09:39;;;;;;;20.58;11.73;;;;;;;;;;6181851;23;20082;-83
2023/04/21 02:12:24;;;;;;;16.80;10.25;;;;;;;;;;6182460;23;20027;-84
2023/04/21 02:15:09;;;;;;;15.23;9.88;;;;;;;;;;6163126;23;20024;-84
2023/04/21 02:17:54;;;;;;;18.17;10.95;;;;;;;;;;6185763;23;20055;-84
2023/04/21 02:20:38;;;;;;;18.60;10.18;;;;;;;;;;6184321;23;20164;-86
2023/04/21 02:23:23;;;;;;;16.60;10.65;;;;;;;;;;6185209;23;20016;-83
2023/04/21 02:26:08;;;;;;;18.40;11.00;;;;;;;;;;6185536;23;20071;-83
2023/04/21 02:28:52;;;;;;;20.88;12.77;;;;;;;;;;6185330;23;20084;-83
2023/04/21 02:31:37;;;;;;;14.68;9.68;;;;;;;;;;6185587;23;20020;-83
2023/04/21 02:34:21;;;;;;;18.45;12.05;;;;;;;;;;6185083;23;20020;-84
2023/04/21 02:37:06;;;;;;;25.50;12.43;;;;;;;;;;6163171;23;20020;-83
2023/04/21 02:39:53;;;;;;;20.15;10.73;;;;;;;;;;6184511;23;20032;-84
2023/04/21 02:42:38;;;;;;;23.20;11.50;;;;;;;;;;6185159;23;20016;-83
2023/04/21 02:45:22;;;;;;;20.50;11.55;;;;;;;;;;6183768;23;20067;-85
2023/04/21 02:48:07;;;;;;;18.00;10.57;;;;;;;;;;6184405;23;20021;-84
2023/04/21 02:50:52;;;;;;;19.20;10.23;;;;;;;;;;6185386;23;20344;-84
2023/04/21 02:53:37;;;;;;;18.50;10.68;;;;;;;;;;6183701;23;20325;-84
2023/04/21 02:56:22;;;;;;;20.35;10.93;;;;;;;;;;6183688;23;20020;-92
2023/04/21 02:59:06;;;;;;;25.48;13.27;;;;;;;;;;6185680;23;20071;-83
2023/04/21 03:01:51;;;;;;;18.67;11.27;;;;;;;;;;6183982;23;20067;-85
2023/04/21 03:04:36;;;;;;;23.13;12.05;;;;;;;;;;6184633;23;20012;-83
2023/04/21 03:07:21;;;;;;;19.63;11.13;;;;;;;;;;6185612;23;20562;-83
2023/04/21 03:10:06;;;;;;;23.10;11.73;;;;;;;;;;6185352;23;20100;-82
2023/04/21 03:12:52;;;;;;;21.65;11.70;;;;;;;;;;6185685;23;20024;-84
2023/04/21 03:15:37;;;;;;;20.52;11.88;;;;;;;;;;6184905;23;20032;-83
2023/04/21 03:18:22;;;;;;;28.58;12.55;;;;;;;;;;6184093;23;20397;-84
2023/04/21 03:21:06;;;;;;;22.13;12.10;;;;;;;;;;6185367;23;20103;-83
2023/04/21 03:23:52;;;;;;;22.85;12.18;;;;;;;;;;6185263;23;20458;-83
2023/04/21 03:26:39;;;;;;;20.98;11.63;;;8.40;99.90;;;;;;6184066;23;20024;-84
2023/04/21 03:29:24;;;;;;;20.42;12.30;;;;;;;;;;6183817;23;20445;-84
2023/04/21 03:32:09;;;;;;;25.05;11.57;;;;;;;;;;6185158;23;20055;-82
2023/04/21 03:34:53;;;;;;;25.05;11.93;;;;;;;;;;6183519;23;20020;-84
2023/04/21 03:37:38;;;;;;;22.67;12.38;;;;;;;;;;6184537;23;20064;-84
2023/04/21 03:40:22;;;;;;;23.27;12.05;;;;;;;;;;6183850;23;20087;-83
2023/04/21 03:43:07;;;;;;;21.00;12.88;;;;;;;;;;6183789;23;20019;-83
2023/04/21 03:45:51;;;;;;;21.75;12.95;;;;;;;;;;6162131;23;20591;-83
2023/04/21 03:48:36;;;;;;;23.80;12.23;;;;;;;;;;6183206;23;20019;-83
2023/04/21 03:51:20;;;;;;;23.00;12.35;;;;;;;;;;6162956;23;20075;-83
2023/04/21 03:54:05;;;;;;;23.35;11.65;;;;;;;;;;6183953;23;20044;-84
2023/04/21 03:56:53;;;;;;;21.95;11.57;;;;;;;;;;6183191;23;20019;-83
2023/04/21 03:59:38;;;;;;;18.23;12.02;;;;;;;;;;6183403;23;20040;-83
2023/04/21 04:02:22;;;;;;;16.08;11.40;;;;;;;;;;6183786;23;20332;-83
2023/04/21 04:05:07;;;;;;;20.67;12.20;;;;;;;;;;6162884;23;20020;-83
2023/04/21 04:07:52;;;;;;;24.83;11.93;;;;;;;;;;6184141;23;20561;-83
2023/04/21 04:10:36;;;;;;;27.23;12.43;;;;;;;;;;6184483;23;20068;-83
2023/04/21 04:13:23;;;;;;;21.80;12.20;;;;;;;;;;6183300;23;20336;-83
2023/04/21 04:16:08;;;;;;;21.35;11.10;;;;;;;;;;6184750;23;20039;-83
2023/04/21 04:18:52;;;;;;;34.25;13.35;;;;;;;;;;6184351;23;20019;-83
2023/04/21 04:21:37;;;;;;;30.38;11.55;;;;;;;;;;6183808;23;20088;-83
2023/04/21 04:24:22;;;;;;;25.08;12.27;;;;;;;;;;6183534;23;20112;-84
2023/04/21 04:27:06;;;;;;;20.85;12.57;;;;;;;;;;6183584;23;20340;-84
2023/04/21 04:29:51;;;;;;;20.88;11.75;;;;;;;;;;6184010;23;20348;-84
2023/04/21 04:32:39;;;;;;;24.63;11.98;;;;;;;;;;6183134;23;20020;-84
2023/04/21 04:35:24;;;;;;;19.73;11.60;;;;;;;;;;6163022;23;20052;-83
2023/04/21 04:38:10;;;;;;;20.85;11.88;;;;;;;;;;6183104;23;20515;-83
2023/04/21 04:40:56;;;;;;;22.55;12.38;;;;;;;;;;6183962;23;20243;-84
2023/04/21 04:43:40;;;;;;;20.08;11.65;;;;;;;;;;6183948;23;20028;-84
2023/04/21 04:46:27;;;;;;;21.70;12.90;;;;;;;;;;6184115;23;20054;-83
2023/04/21 04:49:11;;;;;;;22.42;11.82;;;;;;;;;;6182791;23;20067;-85
2023/04/21 04:51:56;;;;;;;23.33;11.73;;;;;;;;;;6182408;23;20371;-84
2023/04/21 04:54:41;;;;;;;21.08;11.88;;;;;;;;;;6183674;23;20352;-83
2023/04/21 04:57:25;;;;;;;22.38;11.25;;;;;;;;;;6183817;23;20063;-83
2023/04/21 05:00:10;;;;;;;22.38;12.13;;;;;;;;;;6182712;23;20479;-83
2023/04/21 05:02:54;;;;;;;19.73;11.25;;;;;;;;;;6183276;23;20063;-84
2023/04/21 05:05:39;;;;;;;21.88;11.25;;;;;;;;;;6183696;23;20019;-91
2023/04/21 05:08:24;;;;;;;22.83;11.68;;;;;;;;;;6182656;23;20020;-84
2023/04/21 05:11:09;;;;;;;21.60;12.13;;;;;;;;;;6184142;23;20091;-84
2023/04/21 05:13:53;;;;;;;17.45;11.00;;;;;;;;;;6184088;23;20017;-83
2023/04/21 05:16:38;;;;;;;21.13;12.50;;;;;;;;;;6183548;23;20143;-86
2023/04/21 05:19:23;;;;;;;18.80;11.65;;;;;;;;;;6183187;23;20027;-84
2023/04/21 05:22:07;;;;;;;22.40;11.52;;;;;;;;;;6182742;23;20462;-83
2023/04/21 05:24:52;;;;;;;17.92;10.85;;;;;;;;;;6183716;23;20012;-84
2023/04/21 05:27:37;;;;;;;20.98;11.98;;;;;;;;;;6184275;23;20028;-83
2023/04/21 05:30:21;;;;;;;16.80;9.93;;;;;;;;;;6182418;23;20071;-83
2023/04/21 05:33:08;;;;;;;17.42;10.98;;;;;;;;;;6182645;23;20400;-83
2023/04/21 05:35:52;;;;;;;19.65;10.07;;;;;;;;;;6183009;23;20068;-84
2023/04/21 05:38:37;;;;;;;21.02;11.65;;;;;;;;;;6183978;23;20344;-84
2023/04/21 05:41:24;;;;;;;20.77;10.90;;;;;;;;;;6182992;23;20405;-83
2023/04/21 05:44:09;;;;;;;19.50;10.20;;;;;;;;;;6162466;23;20068;-84
2023/04/21 05:46:53;;;;;;;20.17;10.48;;;;;;;;;;6181877;23;20016;-83
2023/04/21 05:49:38;;;;;;;20.88;10.52;;;;;;;;;;6184432;23;20055;-83
2023/04/21 05:52:22;;;;;;;16.73;10.40;;;;;;;;;;6186028;23;20458;-83
2023/04/21 05:55:07;;;;;;;17.40;9.45;;;;;;;;;;6184345;23;20028;-85
2023/04/21 05:57:51;;;;;;;16.63;9.93;;;;;;;;;;6183658;23;20339;-85
2023/04/21 06:00:36;;;;;;;16.73;9.80;;;;;;;;;;6185484;23;20019;-86
2023/04/21 06:03:21;;;;;;;18.08;10.45;;;;;;;;;;6185788;23;20071;-84
2023/04/21 06:06:05;;;;;;;23.10;9.80;;;;;;;;;;6183713;23;20039;-83
2023/04/21 06:08:50;;;;;;;20.95;9.88;;;;;;;;;;6183699;23;20505;-83
2023/04/21 06:11:35;;;;;;;19.15;9.30;;;;;;;;;;6184674;23;20103;-83
2023/04/21 06:14:19;;;;;;;15.88;9.77;;;;;;;;;;6185582;23;20016;-83
2023/04/21 06:17:04;;;;;;;17.52;8.90;;;;;;;;;;6184849;23;20147;-82
2023/04/21 06:19:54;;;;;;;17.20;9.23;;;;;;;;;;6185172;23;20071;-90
2023/04/21 06:22:39;;;;;;;15.77;9.20;;;;;;;;;;6184300;23;20055;-84
2023/04/21 06:25:24;;;;;;;15.98;9.00;;;;;;;;;;6185472;23;20019;-83
2023/04/21 06:28:08;;;;;;;19.88;9.75;;;;;;;;;;6184440;23;20071;-82
2023/04/21 06:30:53;;;;;;;19.30;9.02;;;;;;;;;;6183912;23;20024;-83
2023/04/21 06:33:37;;;;;;;21.02;9.93;;;;;;;;;;6184989;23;20023;-83
2023/04/21 06:36:22;;;;;;;19.13;9.88;;;;;;;;;;6162956;23;20084;-84
2023/04/21 06:39:07;;;;;;;18.25;9.15;;;;;;;;;;6162188;23;20395;-83
2023/04/21 06:41:51;;;;;;;17.98;8.68;;;;;;;;;;6183555;23;20064;-89
2023/04/21 06:44:37;;;;;;;17.48;9.10;;;;;;;;;;6184194;23;20011;-82
2023/04/21 06:47:22;;;;;;;13.43;8.27;;;;;;;;;;6184178;23;20088;-82
2023/04/21 06:50:07;;;;;;;21.45;9.40;;;;;;;;;;6184203;23;20343;-82
2023/04/21 06:52:52;;;;;;;17.42;8.63;;;;;;;;;;6183400;23;20063;-88
2023/04/21 06:55:37;;;;;;;14.27;8.48;;;;;;;;;;6184867;23;20075;-82
2023/04/21 06:58:22;;;;;;;20.98;8.93;;;;;;;;;;6183423;23;20024;-83
2023/04/21 07:01:06;;;;;;;19.20;9.98;;;;;;;;;;6183542;23;20112;-82
2023/04/21 07:03:51;;;;;;;13.50;8.65;;;;;;;;;;6184647;23;20458;-84
2023/04/21 07:06:36;;;;;;;19.75;8.63;;;;;;;;;;6184967;23;20012;-83
2023/04/21 07:09:21;;;;;;;19.35;8.95;;;;;;;;;;6184858;23;20024;-86
2023/04/21 07:12:06;;;;;;;14.65;8.05;;;;;;;;;;6162608;23;20025;-91
2023/04/21 07:14:50;;;;;;;15.13;8.45;;;;;;;;;;6185237;23;20075;-90
2023/04/21 07:17:34;;;;;;;16.08;7.32;;;;;;;;;;6164341;23;20024;-89
2023/04/21 07:20:19;;;;;;;18.05;8.60;;;;;;;;;;6193129;23;20028;-90
2023/04/21 07:23:04;;;;;;;19.48;9.55;;;;;;;;;;6191201;23;20031;-89
2023/04/21 07:25:50;;;;;;;12.68;8.43;;;;;;;;;;6194843;23;20028;-90
2023/04/21 07:28:37;;;;;;;15.15;9.32;;;11.90;99.90;;;;;;6198740;23;20021;-91
2023/04/21 07:31:25;;;;;;;22.65;9.65;;;;;;;;;;6196998;23;20037;-92
2023/04/21 07:34:10;;;;;;;20.92;8.80;;;;;;;;;;6208246;23;20047;-95
2023/04/21 07:36:55;;;;;;;17.48;7.72;;;;;;;;;;6189988;23;20012;-95
2023/04/21 07:39:40;;;;;;;22.40;9.13;;;;;;;;;;6185814;23;20331;-91
2023/04/21 07:42:25;;;;;;;12.55;8.18;;;;;;;;;;6185450;23;20043;-90
2023/04/21 07:45:10;;;;;;;14.98;8.63;;;;;;;;;;6167214;23;20395;-93
2023/04/21 07:47:55;;;;;;;15.48;7.75;;;;;;;;;;6165819;23;20071;-91
2023/04/21 07:50:41;;;;;;;18.90;8.85;;;;;;;;;;6185117;23;20048;-92
2023/04/21 07:53:26;;;;;;;17.90;8.70;;;;;;;;;;6183916;23;20016;-87
2023/04/21 07:56:11;;;;;;;21.08;8.65;;;;;;;;;;6183950;23;20071;-90
2023/04/21 07:58:56;;;;;;;19.75;8.25;;;;;;;;;;6184839;23;20643;-92
2023/04/21 08:01:41;;;;;;;15.35;8.20;;;;;;;;;;6183767;23;20020;-94
2023/04/21 08:04:25;;;;;;;15.35;8.00;;;;;;;;;;6184568;23;20047;-91
2023/04/21 08:07:12;;;;;;;15.20;8.00;;;;;;;;;;6183924;23;20065;-87
2023/04/21 08:09:56;;;;;;;13.13;8.07;;;;;;;;;;6184075;23;20028;-87
2023/04/21 08:12:41;;;;;;;13.25;8.15;;;;;;;;;;6182951;23;20032;-88
2023/04/21 08:15:26;;;;;;;11.73;7.47;;;;;;;;;;6182227;23;20016;-87
2023/04/21 08:18:10;;;;;;;13.57;8.10;;;;;;;;;;6182266;23;20020;-88
2023/04/21 08:20:56;;;;;;;12.60;7.40;;;;;;;;;;6184146;23;20020;-90
2023/04/21 08:23:41;;;;;;;19.10;8.63;;;;;;;;;;6182979;23;20332;-89
2023/04/21 08:26:26;;;;;;;13.57;8.18;;;;;;;;;;6161318;23;20151;-93
2023/04/21 08:29:12;;;;;;;17.33;8.18;;;;;;;;;;6182225;23;20450;-88
2023/04/21 08:31:57;;;;;;;13.38;7.22;;;;;;;;;;6206457;23;20443;-88
2023/04/21 08:34:41;;;;;;;13.02;6.90;;;;;;;;;;6191772;23;20073;-88
2023/04/21 08:37:26;;;;;;;12.10;7.53;;;;;;;;;;6213351;23;20070;-88
2023/04/21 08:40:10;;;;;;;15.90;8.38;;;;;;;;;;6191234;23;20020;-88
2023/04/21 08:42:55;;;;;;;13.40;7.72;;;;;;;;;;6191791;23;20012;-89
2023/04/21 08:45:40;;;;;;;20.02;8.60;;;;;;;;;;6191537;23;20489;-91
2023/04/21 08:48:25;;;;;;;14.65;7.25;;;;;;;;;;6190951;23;20107;-89
2023/04/21 08:51:10;;;;;;;19.73;8.13;;;;;;;;;;6190881;23;20063;-88
2023/04/21 08:53:55;;;;;;;15.07;7.80;;;;;;;;;;6170913;23;20018;-88
2023/04/21 08:56:39;;;;;;;12.98;7.50;;;;;;;;;;6190908;23;20020;-89
2023/04/21 08:59:24;;;;;;;16.05;7.68;;;;;;;;;;6213303;23;20067;-87
2023/04/21 09:02:10;;;;;;;11.82;7.40;;;;;;;;;;6169958;23;20067;-88
2023/04/21 09:04:55;;;;;;;11.48;6.90;;;;;;;;;;6213843;23;20438;-87
2023/04/21 09:07:40;;;;;;;13.63;7.88;;;;;;;;;;6213963;23;20091;-87
2023/04/21 09:10:25;;;;;;;22.88;7.97;;;;;;;;;;6213483;23;20032;-87
2023/04/21 09:13:10;;;;;;;16.50;8.00;;;;;;;;;;6213369;23;20020;-91
2023/04/21 09:15:55;;;;;;;12.05;7.15;;;;;;;;;;6213546;23;20350;-88
2023/04/21 09:18:41;;;;;;;18.23;7.22;;;;;;;;;;6190536;23;20215;-89
2023/04/21 09:21:30;;;;;;;13.48;8.00;;;;;;;;;;6170284;23;20098;-88
2023/04/21 09:24:15;;;;;;;12.55;7.15;;;;;;;;;;6169809;23;20459;-89
2023/04/21 09:27:02;;;;;;;19.08;6.72;;;;;;;;;;6192637;23;20070;-87
2023/04/21 09:29:47;;;;;;;14.05;7.60;;;;;;;;;;6213602;23;20024;-88
2023/04/21 09:32:37;;;;;;;16.00;7.40;;;16.30;99.90;;;;;;6169541;23;20050;-88
2023/04/21 09:35:21;;;;;;;17.92;8.57;;;;;;;;;;6212976;23;20015;-89
2023/04/21 09:38:09;;;;;;;13.93;7.55;;;;;;;;;;6191457;23;20024;-88
2023/04/21 09:40:57;;;;;;;16.27;8.13;;;;;;;;;;6213630;23;20012;-89
2023/04/21 09:43:42;;;;;;;17.67;6.85;;;;;;;;;;6213452;23;20028;-88
2023/04/21 09:46:28;;;;;;;18.55;7.53;;;;;;;;;;6190619;23;20059;-89
2023/04/21 09:49:14;;;;;;;13.43;7.40;;;;;;;;;;6191442;23;20020;-91
2023/04/21 09:51:59;;;;;;;22.98;7.18;;;;;;;;;;6214377;23;20131;-88
2023/04/21 09:54:45;;;;;;;12.48;6.20;;;;;;;;;;6213991;23;20146;-87
2023/04/21 09:57:31;;;;;;;16.67;8.20;;;;;;;;;;6212753;23;20096;-95
2023/04/21 10:00:17;;;;;;;15.80;7.10;;;;;;;;;;6192251;23;20462;-91
2023/04/21 10:03:09;;;;;;;14.02;7.35;;;;;;;;;;6213590;23;20458;-89
2023/04/21 10:05:53;;;;;;;15.82;7.82;;;;;;;;;;6213621;23;20137;-89
2023/04/21 10:08:38;;;;;;;16.25;8.68;;;;;;;;;;6190360;23;20532;-88
2023/04/21 10:11:23;;;;;;;17.05;7.60;;;;;;;;;;6213083;23;20012;-88
2023/04/21 10:14:08;;;;;;;14.85;8.10;;;;;;;;;;6191346;23;20020;-88
2023/04/21 10:16:57;;;;;;;17.42;7.80;;;;;;;;;;6170312;23;20331;-88
2023/04/21 10:19:52;;;;;;;14.40;7.07;;;;;;;;;;6170027;23;20075;-88
2023/04/21 10:22:38;;;;;;;13.02;7.97;;;;;;;;;;6212965;23;20082;-87
2023/04/21 10:25:23;;;;;;;13.02;7.82;;;;;;;;;;6190798;23;20019;-86
2023/04/21 10:28:07;;;;;;;13.25;7.05;;;;;;;;;;6213642;23;20478;-87
2023/04/21 10:31:12;;;;;;;13.48;7.03;;;;;;;;;;6170492;23;20028;-87
2023/04/21 10:34:06;;;;;;;15.23;7.28;;;;;;;;;;6191067;23;20019;-88
2023/04/21 10:37:09;;;;;;;15.93;7.15;;;;;;;;;;6192041;23;20027;-87
2023/04/21 10:39:55;;;;;;;13.15;6.80;;;;;;;;;;6193175;23;20016;-88
2023/04/21 10:42:39;;;;;;;13.00;6.78;;;;;;;;;;6215083;23;20064;-87
2023/04/21 10:45:26;;;;;;;14.55;7.60;;;;;;;;;;6171093;23;20486;-89
2023/04/21 10:48:13;;;;;;;13.10;7.28;;;;;;;;;;6192708;23;20020;-87
2023/04/21 10:50:58;;;;;;;14.48;7.13;;;;;;;;;;6215333;23;20020;-88
2023/04/21 10:53:43;;;;;;;15.75;7.60;;;;;;;;;;6171551;23;20016;-87
2023/04/21 10:56:28;;;;;;;17.38;6.65;;;;;;;;;;6215216;23;20012;-88
2023/04/21 10:59:15;;;;;;;10.35;6.30;;;;;;;;;;6215548;23;20071;-88
2023/04/21 11:02:00;;;;;;;10.07;6.82;;;;;;;;;;6215238;23;20442;-87
2023/04/21 11:04:48;;;;;;;13.40;6.40;;;;;;;;;;6192078;23;20563;-88
2023/04/21 11:07:32;;;;;;;15.93;7.53;;;;;;;;;;6191887;23;20106;-88
2023/04/21 11:10:17;;;;;;;14.20;6.60;;;;;;;;;;6215137;23;20027;-89
2023/04/21 11:13:01;;;;;;;12.75;6.13;;;;;;;;;;6171707;23;20020;-89
2023/04/21 11:16:15;;;;;;;11.38;5.97;;;;;;;;;;6214696;23;20014;-90
2023/04/21 11:19:00;;;;;;;10.75;5.18;;;;;;;;;;6202564;23;20020;-90
2023/04/21 11:21:48;;;;;;;11.60;5.93;;;;;;;;;;6191922;23;20032;-92
2023/04/21 11:24:32;;;;;;;11.48;6.03;;;;;;;;;;6214556;23;20066;-88
2023/04/21 11:27:18;;;;;;;13.75;5.95;;;;;;;;;;6192566;23;20055;-88
2023/04/21 11:30:03;;;;;;;13.95;5.47;;;;;;;;;;6192624;23;20067;-88
2023/04/21 11:32:54;;;;;;;8.60;5.30;;;;;;;;;;6192092;23;20531;-87
2023/04/21 11:35:40;;;;;;;10.63;5.30;;;19.70;78.80;;;;;;6214618;23;20035;-89
2023/04/21 11:38:24;;;;;;;11.10;4.50;;;;;;;;;;6192680;23;20086;-92
2023/04/21 11:41:09;;;;;;;10.95;4.97;;;;;;;;;;6171532;23;20070;-89
2023/04/21 11:43:54;;;;;;;11.52;5.05;;;;;;;;;;6192489;23;20047;-90
2023/04/21 11:46:45;;;;;;;12.88;4.60;;;;;;;;;;6192117;23;20055;-88
2023/04/21 11:49:31;;;;;;;10.93;5.28;;;;;;;;;;6192287;23;20529;-92
2023/04/21 11:52:26;;;;;;;11.68;4.65;;;;;;;;;;6192555;23;20086;-89
2023/04/21 11:55:14;;;;;;;11.77;4.13;;;;;;;;;;6192073;23;20092;-89
2023/04/21 11:57:58;;;;;;;11.57;4.63;;;;;;;;;;6214939;23;20016;-88
2023/04/21 12:00:46;;;;;;;8.65;4.15;;;;;;;;;;6170787;23;20296;-91
2023/04/21 12:03:31;;;;;;;10.27;4.18;;;;;;;;;;6192080;23;20043;-89
2023/04/21 12:06:37;;;;;;;10.95;4.03;;;;;;;;;;6192822;23;20463;-95
2023/04/21 12:09:21;;;;;;;12.38;4.28;;;;;;;;;;6192889;23;20100;-89
2023/04/21 12:12:07;;;;;;;9.00;3.95;;;;;;;;;;6170014;23;20020;-89
2023/04/21 12:14:51;;;;;;;8.30;3.70;;;;;;;;;;6190723;23;20090;-90
2023/04/21 12:17:46;;;;;;;7.25;3.42;;;;;;;;;;6170485;23;20527;-91
2023/04/21 12:20:30;;;;;;;11.02;4.30;;;;;;;;;;6192307;23;20019;-88
2023/04/21 12:23:15;;;;;;;11.82;4.50;;;;;;;;;;6191583;23;20016;-88
2023/04/21 12:26:00;;;;;;;9.55;4.55;;;;;;;;;;6214012;23;20038;-88
2023/04/21 12:28:44;;;;;;;15.48;4.57;;;;;;;;;;6213394;23;20517;-88
2023/04/21 12:31:29;;;;;;;6.25;3.97;;;;;;;;;;6191400;23;20078;-91
2023/04/21 12:34:14;;;;;;;9.07;3.80;;;;;;;;;;6170989;23;20446;-89
2023/04/21 12:36:59;;;;;;;14.73;5.10;;;;;;;;;;6190854;23;20015;-90
2023/04/21 12:39:44;;;;;;;12.68;3.97;;;;;;;;;;6170080;23;20067;-90
2023/04/21 12:42:29;;;;;;;8.68;4.00;;;;;;;;;;6192006;23;20393;-89
2023/04/21 12:45:14;;;;;;;8.68;4.35;;;;;;;;;;6191912;23;20084;-88
2023/04/21 12:47:59;;;;;;;12.77;3.83;;;;;;;;;;6190920;23;20086;-89
2023/04/21 12:50:45;;;;;;;15.63;4.38;;;;;;;;;;6170574;23;20134;-87
2023/04/21 12:53:30;;;;;;;10.23;3.85;;;;;;;;;;6191478;23;20331;-88
2023/04/21 12:56:15;;;;;;;9.75;3.85;;;;;;;;;;6191527;23;20100;-90
2023/04/21 12:58:59;;;;;;;8.65;3.42;;;;;;;;;;6190466;23;20012;-90
2023/04/21 13:01:44;;;;;;;9.98;3.40;;;;;;;;;;6213312;23;20016;-88
2023/04/21 13:04:28;;;;;;;10.07;3.72;;;;;;;;;;6214071;23;20032;-88
2023/04/21 13:07:14;;;;;;;11.85;3.80;;;;;;;;;;6191729;23;20020;-88
2023/04/21 13:09:59;;;;;;;11.68;3.50;;;;;;;;;;6191383;23;20234;-88
2023/04/21 13:12:44;;;;;;;6.53;3.05;;;;;;;;;;6191153;23;20133;-88
2023/04/21 13:15:29;;;;;;;9.18;3.10;;;;;;;;;;6191359;23;20039;-88
2023/04/21 13:18:13;;;;;;;7.03;3.08;;;;;;;;;;6191513;23;20510;-89
2023/04/21 13:20:58;;;;;;;11.90;3.25;;;;;;;;;;6170106;23;20063;-87
2023/04/21 13:23:43;;;;;;;8.75;2.97;;;;;;;;;;6213632;23;20047;-93
2023/04/21 13:26:32;;;;;;;9.95;2.85;;;21.00;57.80;;;;;;6170738;23;20016;-87
2023/04/21 13:29:17;;;;;;;8.38;2.78;;;;;;;;;;6191302;23;20020;-87
2023/04/21 13:32:02;;;;;;;6.35;2.80;;;;;;;;;;6212825;23;20750;-87
2023/04/21 13:34:47;;;;;;;10.63;2.92;;;;;;;;;;6213196;23;20079;-88
2023/04/21 13:37:31;;;;;;;10.73;3.22;;;;;;;;;;6191272;23;20100;-88
2023/04/21 13:40:16;;;;;;;7.13;2.72;;;;;;;;;;6213676;23;20070;-88
2023/04/21 13:43:01;;;;;;;5.45;2.35;;;;;;;;;;6169759;23;20086;-88
2023/04/21 13:45:48;;;;;;;12.05;3.00;;;;;;;;;;6190685;23;20012;-91
2023/04/21 13:48:33;;;;;;;8.45;2.90;;;;;;;;;;6213882;23;20023;-88
2023/04/21 13:51:18;;;;;;;9.88;3.00;;;;;;;;;;6191944;23;20027;-88
2023/04/21 13:54:03;;;;;;;7.55;3.67;;;;;;;;;;6213702;23;20024;-88
2023/04/21 13:56:47;;;;;;;12.00;2.90;;;;;;;;;;6213714;23;20040;-92
2023/04/21 13:59:31;;;;;;;6.60;2.60;;;;;;;;;;6213935;23;20034;-87
2023/04/21 14:02:16;;;;;;;7.40;2.88;;;;;;;;;;6213828;23;20019;-88
2023/04/21 14:05:02;;;;;;;13.30;3.05;;;;;;;;;;6213307;23;20108;-87
2023/04/21 14:07:47;;;;;;;6.88;2.88;;;;;;;;;;6190813;23;20059;-92
2023/04/21 14:10:32;;;;;;;10.73;2.90;;;;;;;;;;6191835;23;20027;-87
2023/04/21 14:13:16;;;;;;;8.38;3.00;;;;;;;;;;6215951;23;20070;-87
2023/04/21 14:16:01;;;;;;;8.57;3.13;;;;;;;;;;6171979;23;20016;-87
2023/04/21 14:18:46;;;;;;;8.05;3.20;;;;;;;;;;6206231;23;20066;-87
2023/04/21 14:21:31;;;;;;;8.75;3.30;;;;;;;;;;6193146;23;20335;-86
2023/04/21 14:24:16;;;;;;;9.60;3.17;;;;;;;;;;6216056;23;20047;-87
2023/04/21 14:27:00;;;;;;;12.18;3.20;;;;;;;;;;6192790;23;20031;-91
2023/04/21 14:29:45;;;;;;;9.63;3.58;;;;;;;;;;6192675;23;20075;-86
2023/04/21 14:32:30;;;;;;;7.07;2.60;;;;;;;;;;6215023;23;20019;-89
2023/04/21 14:35:14;;;;;;;6.85;2.17;;;;;;;;;;6172389;23;20514;-87
2023/04/21 14:37:59;;;;;;;7.57;3.08;;;;;;;;;;6215105;23;20439;-88
2023/04/21 14:40:44;;;;;;;11.60;2.80;;;;;;;;;;6171679;23;20455;-90
2023/04/21 14:43:29;;;;;;;10.77;3.53;;;;;;;;;;6171708;23;20019;-88
2023/04/21 14:46:13;;;;;;;8.43;2.50;;;;;;;;;;6215640;23;20875;-93
2023/04/21 14:48:58;;;;;;;9.02;3.00;;;;;;;;;;6215269;23;20023;-91
2023/04/21 14:51:44;;;;;;;7.88;2.60;;;;;;;;;;6215066;23;20074;-89
2023/04/21 14:54:29;;;;;;;5.93;2.67;;;;;;;;;;6192630;23;20095;-88
2023/04/21 14:57:14;;;;;;;16.00;3.25;;;;;;;;;;6171292;23;20016;-88
2023/04/21 14:59:59;;;;;;;7.70;2.90;;;;;;;;;;6214864;23;20019;-88
2023/04/21 15:02:44;;;;;;;9.07;3.10;;;;;;;;;;6193113;23;20503;-89
2023/04/21 15:05:28;;;;;;;10.40;3.63;;;;;;;;;;6171682;23;20343;-88
2023/04/21 15:08:16;;;;;;;11.35;3.38;;;;;;;;;;6214313;23;20024;-87
2023/04/21 15:11:01;;;;;;;11.32;3.17;;;;;;;;;;6214242;23;20068;-89
2023/04/21 15:13:46;;;;;;;7.85;3.08;;;;;;;;;;6214933;23;20059;-88
2023/04/21 15:16:31;;;;;;;7.47;2.72;;;;;;;;;;6214987;23;20012;-88
2023/04/21 15:19:16;;;;;;;12.02;3.92;;;;;;;;;;6191490;23;20074;-86
2023/04/21 15:22:00;;;;;;;9.30;3.53;;;;;;;;;;6170320;23;20051;-92
2023/04/21 15:24:45;;;;;;;7.75;3.20;;;;;;;;;;6192117;23;20063;-90
2023/04/21 15:27:30;;;;;;;12.73;3.13;;;;;;;;;;6192104;23;20086;-87
2023/04/21 15:30:15;;;;;;;8.65;3.13;;;;;;;;;;6170849;23;20027;-87
2023/04/21 15:33:00;;;;;;;9.63;3.15;;;;;;;;;;6214555;23;20069;-92
2023/04/21 15:35:47;;;;;;;8.25;3.17;;;;;;;;;;6192198;23;20340;-87
2023/04/21 15:38:31;;;;;;;8.40;2.92;;;;;;;;;;6192495;23;20019;-87
2023/04/21 15:41:30;;;;;;;9.43;2.85;;;;;;;;;;6170685;23;20023;-89
2023/04/21 15:44:17;;;;;;;9.85;3.05;;;;;;;;;;6191195;23;20505;-86
2023/04/21 15:47:02;;;;;;;11.85;3.42;;;;;;;;;;6213777;23;20343;-90
2023/04/21 15:50:12;;;;;;;;;;;;;;;;;;;;;
2023/04/21 15:52:57;;;;;;;13.65;3.35;;;;;;;;;;6214623;23;20082;-88
2023/04/21 15:55:43;;;;;;;8.38;3.17;;;;;;;;;;6191526;23;20020;-89
2023/04/21 15:58:28;;;;;;;8.88;3.05;;;;;;;;;;6191658;23;20024;-91
2023/04/21 16:01:13;;;;;;;9.50;3.30;;;;;;;;;;6191352;23;20019;-88
2023/04/21 16:03:58;;;;;;;7.60;3.35;;;;;;;;;;6214107;23;20035;-88
2023/04/21 16:06:42;;;;;;;4.38;2.88;;;;;;;;;;6191621;23;20039;-88
2023/04/21 16:09:27;;;;;;;7.97;3.00;;;;;;;;;;6191205;23;20027;-87
2023/04/21 16:12:11;;;;;;;11.45;3.75;;;;;;;;;;6170472;23;20016;-88